createdAt,value
2022-09-21T00:00:17.243Z,66.45
2022-09-21T00:01:17.150Z,65.38
2022-09-21T00:02:17.152Z,64.82
2022-09-21T00:03:17.097Z,66.80
2022-09-21T00:04:17.208Z,66.22
2022-09-21T00:05:17.102Z,66.90
2022-09-21T00:06:17.042Z,65.34
2022-09-21T00:07:17.089Z,60.14
2022-09-21T00:08:17.044Z,64.15
2022-09-21T00:09:17.016Z,63.37
2022-09-21T00:10:16.976Z,65.92
2022-09-21T00:11:16.960Z,63.66
2022-09-21T00:12:16.968Z,63.54
2022-09-21T00:13:16.922Z,64.18
2022-09-21T00:14:17.920Z,65.74
2022-09-21T00:15:16.945Z,67.87
2022-09-21T00:16:16.933Z,64.33
2022-09-21T00:17:16.849Z,63.98
2022-09-21T00:18:16.823Z,65.20
2022-09-21T00:19:16.860Z,64.51
2022-09-21T00:20:16.873Z,66.25
2022-09-21T00:21:16.787Z,65.88
2022-09-21T00:22:16.758Z,66.57
2022-09-21T00:23:16.737Z,68.53
2022-09-21T00:24:16.762Z,65.28
2022-09-21T00:25:16.709Z,66.41
2022-09-21T00:26:16.720Z,67.63
2022-09-21T00:27:16.665Z,65.50
2022-09-21T00:28:16.671Z,66.44
2022-09-21T00:29:16.703Z,67.38
2022-09-21T00:30:16.684Z,67.71
2022-09-21T00:31:16.625Z,65.75
2022-09-21T00:32:16.600Z,62.92
2022-09-21T00:33:16.580Z,67.13
2022-09-21T00:34:16.613Z,65.68
2022-09-21T00:35:16.547Z,67.17
2022-09-21T00:36:16.520Z,67.07
2022-09-21T00:37:16.577Z,62.19
2022-09-21T00:38:16.488Z,64.18
2022-09-21T00:39:16.499Z,68.22
2022-09-21T00:40:16.567Z,66.27
2022-09-21T00:41:16.430Z,63.47
2022-09-21T00:42:16.415Z,67.45
2022-09-21T00:43:16.403Z,68.46
2022-09-21T00:44:16.431Z,65.80
2022-09-21T00:45:16.376Z,68.90
2022-09-21T00:46:16.342Z,61.07
2022-09-21T00:47:16.338Z,64.27
2022-09-21T00:48:16.356Z,65.75
2022-09-21T00:49:16.326Z,66.49
2022-09-21T00:50:16.316Z,65.36
2022-09-21T00:51:16.276Z,64.82
2022-09-21T00:52:16.255Z,64.72
2022-09-21T00:53:16.228Z,66.72
2022-09-21T00:54:16.251Z,65.22
2022-09-21T00:55:16.198Z,63.92
2022-09-21T00:56:17.213Z,64.17
2022-09-21T00:57:16.167Z,66.45
2022-09-21T00:58:16.162Z,65.16
2022-09-21T00:59:17.432Z,66.78
2022-09-21T01:00:16.195Z,63.92
2022-09-21T01:01:16.181Z,66.95
2022-09-21T01:02:16.094Z,68.07
2022-09-21T01:03:16.064Z,66.49
2022-09-21T01:04:16.066Z,67.02
2022-09-21T01:05:16.018Z,64.81
2022-09-21T01:06:16.008Z,66.70
2022-09-21T01:07:15.977Z,66.81
2022-09-21T01:08:15.980Z,64.82
2022-09-21T01:09:15.985Z,64.04
2022-09-21T01:10:16.038Z,67.29
2022-09-21T01:11:15.913Z,66.45
2022-09-21T01:12:15.903Z,66.29
2022-09-21T01:13:15.886Z,66.19
2022-09-21T01:14:15.889Z,63.69
2022-09-21T01:15:15.864Z,67.28
2022-09-21T01:16:15.861Z,63.79
2022-09-21T01:17:15.812Z,66.18
2022-09-21T01:18:15.792Z,66.28
2022-09-21T01:19:15.807Z,67.54
2022-09-21T01:20:15.803Z,61.06
2022-09-21T01:21:15.778Z,61.20
2022-09-21T01:22:15.719Z,62.40
2022-09-21T01:23:15.718Z,68.58
2022-09-21T01:24:15.729Z,63.92
2022-09-21T01:25:15.684Z,65.72
2022-09-21T01:26:15.666Z,66.69
2022-09-21T01:27:15.661Z,66.48
2022-09-21T01:28:15.628Z,65.17
2022-09-21T01:29:15.637Z,66.97
2022-09-21T01:30:15.634Z,66.77
2022-09-21T01:31:15.606Z,70.81
2022-09-21T01:32:15.751Z,67.18
2022-09-21T01:33:15.536Z,67.66
2022-09-21T01:34:15.547Z,68.85
2022-09-21T01:35:15.509Z,65.28
2022-09-21T01:36:15.492Z,63.86
2022-09-21T01:37:15.479Z,66.02
2022-09-21T01:38:15.459Z,65.80
2022-09-21T01:39:15.485Z,64.07
2022-09-21T01:40:15.517Z,68.25
2022-09-21T01:41:15.404Z,67.67
2022-09-21T01:42:15.392Z,66.71
2022-09-21T01:43:15.501Z,67.84
2022-09-21T01:44:15.373Z,65.98
2022-09-21T01:45:15.374Z,65.97
2022-09-21T01:46:15.316Z,66.15
2022-09-21T01:47:15.315Z,64.47
2022-09-21T01:48:15.284Z,64.75
2022-09-21T01:49:15.291Z,62.84
2022-09-21T01:50:15.344Z,65.58
2022-09-21T01:51:15.238Z,67.93
2022-09-21T01:52:15.199Z,66.91
2022-09-21T01:53:15.189Z,67.66
2022-09-21T01:54:15.215Z,69.14
2022-09-21T01:55:15.174Z,67.07
2022-09-21T01:56:15.128Z,66.65
2022-09-21T01:57:15.134Z,66.51
2022-09-21T01:58:15.096Z,66.74
2022-09-21T01:59:15.127Z,65.58
2022-09-21T02:00:15.074Z,65.27
2022-09-21T02:01:15.111Z,66.43
2022-09-21T02:02:15.089Z,70.04
2022-09-21T02:03:15.021Z,67.61
2022-09-21T02:04:14.997Z,66.81
2022-09-21T02:05:15.053Z,69.80
2022-09-21T02:06:14.960Z,67.95
2022-09-21T02:07:14.948Z,65.78
2022-09-21T02:08:14.920Z,67.99
2022-09-21T02:09:14.909Z,67.16
2022-09-21T02:10:15.022Z,69.53
2022-09-21T02:11:14.886Z,65.46
2022-09-21T02:12:18.873Z,67.59
2022-09-21T02:13:15.831Z,64.33
2022-09-21T02:14:14.819Z,67.35
2022-09-21T02:15:14.844Z,66.83
2022-09-21T02:16:14.840Z,65.30
2022-09-21T02:17:14.774Z,67.10
2022-09-21T02:18:14.768Z,66.20
2022-09-21T02:19:14.739Z,68.48
2022-09-21T02:20:14.860Z,65.52
2022-09-21T02:21:14.701Z,67.77
2022-09-21T02:22:14.695Z,67.71
2022-09-21T02:23:14.670Z,67.75
2022-09-21T02:24:14.688Z,67.22
2022-09-21T02:25:14.669Z,69.52
2022-09-21T02:26:14.637Z,69.62
2022-09-21T02:27:14.648Z,68.36
2022-09-21T02:28:14.594Z,66.85
2022-09-21T02:29:14.596Z,67.89
2022-09-21T02:30:14.594Z,69.02
2022-09-21T02:31:14.560Z,68.35
2022-09-21T02:32:14.516Z,69.20
2022-09-21T02:33:14.511Z,68.07
2022-09-21T02:34:14.516Z,69.35
2022-09-21T02:35:14.481Z,67.42
2022-09-21T02:36:14.454Z,66.88
2022-09-21T02:37:14.438Z,68.98
2022-09-21T02:38:14.453Z,69.63
2022-09-21T02:39:14.428Z,67.54
2022-09-21T02:40:14.430Z,65.50
2022-09-21T02:41:14.378Z,69.14
2022-09-21T02:42:14.354Z,69.31
2022-09-21T02:43:14.329Z,68.58
2022-09-21T02:44:14.338Z,68.16
2022-09-21T02:45:14.311Z,67.39
2022-09-21T02:46:14.323Z,68.19
2022-09-21T02:47:14.255Z,69.41
2022-09-21T02:48:14.261Z,69.39
2022-09-21T02:49:14.287Z,67.40
2022-09-21T02:50:14.237Z,70.77
2022-09-21T02:51:14.194Z,68.87
2022-09-21T02:52:14.178Z,69.37
2022-09-21T02:53:14.155Z,67.23
2022-09-21T02:54:14.184Z,67.57
2022-09-21T02:55:14.138Z,68.39
2022-09-21T02:56:14.108Z,68.75
2022-09-21T02:57:14.093Z,69.10
2022-09-21T02:58:14.067Z,71.49
2022-09-21T02:59:14.087Z,67.90
2022-09-21T03:00:14.043Z,70.55
2022-09-21T03:01:14.013Z,70.39
2022-09-21T03:02:14.046Z,65.98
2022-09-21T03:03:13.977Z,70.17
2022-09-21T03:04:14.000Z,71.03
2022-09-21T03:05:13.960Z,69.28
2022-09-21T03:06:13.935Z,69.43
2022-09-21T03:07:13.928Z,66.50
2022-09-21T03:08:13.903Z,69.06
2022-09-21T03:09:13.901Z,69.35
2022-09-21T03:10:13.872Z,69.76
2022-09-21T03:11:13.922Z,68.41
2022-09-21T03:12:13.871Z,69.29
2022-09-21T03:13:13.818Z,67.90
2022-09-21T03:14:13.823Z,69.68
2022-09-21T03:15:13.780Z,69.41
2022-09-21T03:16:13.791Z,70.50
2022-09-21T03:17:13.742Z,69.92
2022-09-21T03:18:13.727Z,69.52
2022-09-21T03:19:13.742Z,71.02
2022-09-21T03:20:13.714Z,70.62
2022-09-21T03:21:13.691Z,71.39
2022-09-21T03:22:13.690Z,68.43
2022-09-21T03:23:13.633Z,69.08
2022-09-21T03:24:13.633Z,68.95
2022-09-21T03:25:13.595Z,70.40
2022-09-21T03:26:13.590Z,69.66
2022-09-21T03:27:13.558Z,67.94
2022-09-21T03:28:13.539Z,70.33
2022-09-21T03:29:13.569Z,69.49
2022-09-21T03:30:13.530Z,68.68
2022-09-21T03:31:13.510Z,70.05
2022-09-21T03:32:13.476Z,68.66
2022-09-21T03:33:13.471Z,71.38
2022-09-21T03:34:14.475Z,70.71
2022-09-21T03:35:13.421Z,70.30
2022-09-21T03:36:13.427Z,69.33
2022-09-21T03:37:13.379Z,67.55
2022-09-21T03:38:14.384Z,70.15
2022-09-21T03:39:13.403Z,69.77
2022-09-21T03:40:13.481Z,68.88
2022-09-21T03:41:14.323Z,70.50
2022-09-21T03:42:13.310Z,70.73
2022-09-21T03:43:13.306Z,69.56
2022-09-21T03:44:13.334Z,71.46
2022-09-21T03:45:13.241Z,70.39
2022-09-21T03:46:13.262Z,70.51
2022-09-21T03:47:13.231Z,70.23
2022-09-21T03:48:13.204Z,69.95
2022-09-21T03:49:13.212Z,71.49
2022-09-21T03:50:13.227Z,70.29
2022-09-21T03:51:13.154Z,68.30
2022-09-21T03:52:13.207Z,69.56
2022-09-21T03:53:13.130Z,69.34
2022-09-21T03:54:13.123Z,69.31
2022-09-21T03:55:13.136Z,71.45
2022-09-21T03:56:13.056Z,69.66
2022-09-21T03:57:13.042Z,71.17
2022-09-21T03:58:13.046Z,70.11
2022-09-21T03:59:14.374Z,70.26
2022-09-21T04:00:14.042Z,68.80
2022-09-21T04:01:13.004Z,69.88
2022-09-21T04:02:12.952Z,71.23
2022-09-21T04:03:12.953Z,70.73
2022-09-21T04:04:12.952Z,70.77
2022-09-21T04:05:12.904Z,72.14
2022-09-21T04:06:12.926Z,70.84
2022-09-21T04:07:12.863Z,70.84
2022-09-21T04:08:12.860Z,70.53
2022-09-21T04:09:12.875Z,71.52
2022-09-21T04:10:12.939Z,70.94
2022-09-21T04:11:12.801Z,69.54
2022-09-21T04:12:12.789Z,69.36
2022-09-21T04:13:12.763Z,71.15
2022-09-21T04:14:12.778Z,71.19
2022-09-21T04:15:12.786Z,69.86
2022-09-21T04:16:12.760Z,71.23
2022-09-21T04:17:12.696Z,71.01
2022-09-21T04:18:12.676Z,69.55
2022-09-21T04:19:12.704Z,68.07
2022-09-21T04:20:12.662Z,70.81
2022-09-21T04:21:12.655Z,69.97
2022-09-21T04:22:12.609Z,68.60
2022-09-21T04:23:12.603Z,70.64
2022-09-21T04:24:12.621Z,70.47
2022-09-21T04:25:12.567Z,69.59
2022-09-21T04:26:12.572Z,69.68
2022-09-21T04:27:12.528Z,69.29
2022-09-21T04:28:12.504Z,70.58
2022-09-21T04:29:12.507Z,70.56
2022-09-21T04:30:12.523Z,69.55
2022-09-21T04:31:12.482Z,71.81
2022-09-21T04:32:12.455Z,71.84
2022-09-21T04:33:12.420Z,71.41
2022-09-21T04:34:12.440Z,72.02
2022-09-21T04:35:12.383Z,72.35
2022-09-21T04:36:12.356Z,72.91
2022-09-21T04:37:12.343Z,70.97
2022-09-21T04:38:12.340Z,70.64
2022-09-21T04:39:12.356Z,70.15
2022-09-21T04:40:12.385Z,72.67
2022-09-21T04:41:12.277Z,71.91
2022-09-21T04:42:12.271Z,72.94
2022-09-21T04:43:12.257Z,72.14
2022-09-21T04:44:12.265Z,71.34
2022-09-21T04:45:12.245Z,72.10
2022-09-21T04:46:12.259Z,71.59
2022-09-21T04:47:12.184Z,70.24
2022-09-21T04:48:12.163Z,71.96
2022-09-21T04:49:12.192Z,70.28
2022-09-21T04:50:12.176Z,71.24
2022-09-21T04:51:12.107Z,71.66
2022-09-21T04:52:14.761Z,71.41
2022-09-21T04:53:13.081Z,70.39
2022-09-21T04:54:12.052Z,72.36
2022-09-21T04:55:12.079Z,71.89
2022-09-21T04:56:12.019Z,71.95
2022-09-21T04:57:11.999Z,71.41
2022-09-21T04:58:11.983Z,70.73
2022-09-21T04:59:11.978Z,72.16
2022-09-21T05:00:11.994Z,71.28
2022-09-21T05:01:12.044Z,72.00
2022-09-21T05:02:11.920Z,71.98
2022-09-21T05:03:11.992Z,70.15
2022-09-21T05:04:11.885Z,70.99
2022-09-21T05:05:11.896Z,70.87
2022-09-21T05:06:11.844Z,70.37
2022-09-21T05:07:11.846Z,71.55
2022-09-21T05:08:11.822Z,72.13
2022-09-21T05:09:11.798Z,70.56
2022-09-21T05:10:11.805Z,73.04
2022-09-21T05:11:11.767Z,72.49
2022-09-21T05:12:11.766Z,73.24
2022-09-21T05:13:11.726Z,71.84
2022-09-21T05:14:11.725Z,69.95
2022-09-21T05:15:11.739Z,72.07
2022-09-21T05:16:11.700Z,71.87
2022-09-21T05:17:11.654Z,70.29
2022-09-21T05:18:11.658Z,69.96
2022-09-21T05:19:11.618Z,67.19
2022-09-21T05:20:11.659Z,70.05
2022-09-21T05:21:11.599Z,67.88
2022-09-21T05:22:11.576Z,68.32
2022-09-21T05:23:16.143Z,69.78
2022-09-21T05:24:13.570Z,70.93
2022-09-21T05:25:11.551Z,70.52
2022-09-21T05:26:11.509Z,70.39
2022-09-21T05:27:11.484Z,70.48
2022-09-21T05:28:11.530Z,71.44
2022-09-21T05:29:11.447Z,68.91
2022-09-21T05:30:11.481Z,70.65
2022-09-21T05:31:17.659Z,70.08
2022-09-21T05:32:13.395Z,68.91
2022-09-21T05:33:11.380Z,71.52
2022-09-21T05:34:11.430Z,70.94
2022-09-21T05:35:11.410Z,71.22
2022-09-21T05:36:11.348Z,68.32
2022-09-21T05:37:11.326Z,69.16
2022-09-21T05:38:11.310Z,70.15
2022-09-21T05:39:11.295Z,70.29
2022-09-21T05:40:11.356Z,67.43
2022-09-21T05:41:11.250Z,69.95
2022-09-21T05:42:11.226Z,69.11
2022-09-21T05:43:11.263Z,70.80
2022-09-21T05:44:11.194Z,70.08
2022-09-21T05:45:11.496Z,70.02
2022-09-21T05:46:11.240Z,69.43
2022-09-21T05:47:11.146Z,68.48
2022-09-21T05:48:11.119Z,70.71
2022-09-21T05:49:11.104Z,69.76
2022-09-21T05:50:11.207Z,69.37
2022-09-21T05:51:11.078Z,68.07
2022-09-21T05:52:11.049Z,70.99
2022-09-21T05:53:11.031Z,70.38
2022-09-21T05:54:11.022Z,68.25
2022-09-21T05:55:11.043Z,68.61
2022-09-21T05:56:10.999Z,67.66
2022-09-21T05:57:10.968Z,70.01
2022-09-21T05:58:10.961Z,68.35
2022-09-21T05:59:10.943Z,68.75
2022-09-21T06:00:10.941Z,68.41
2022-09-21T06:01:10.924Z,69.28
2022-09-21T06:02:10.904Z,68.21
2022-09-21T06:03:15.539Z,67.99
2022-09-21T06:04:12.844Z,67.18
2022-09-21T06:05:10.876Z,68.50
2022-09-21T06:06:10.828Z,69.47
2022-09-21T06:07:10.812Z,67.34
2022-09-21T06:08:10.797Z,67.70
2022-09-21T06:09:10.804Z,68.21
2022-09-21T06:10:10.803Z,67.84
2022-09-21T06:11:10.733Z,67.66
2022-09-21T06:12:10.711Z,67.97
2022-09-21T06:13:10.710Z,69.12
2022-09-21T06:14:10.676Z,66.93
2022-09-21T06:15:10.692Z,68.47
2022-09-21T06:16:10.637Z,67.75
2022-09-21T06:17:10.626Z,67.30
2022-09-21T06:18:14.272Z,65.29
2022-09-21T06:19:12.590Z,67.33
2022-09-21T06:20:11.769Z,66.33
2022-09-21T06:21:10.558Z,67.83
2022-09-21T06:22:10.561Z,67.17
2022-09-21T06:23:10.537Z,67.17
2022-09-21T06:24:10.505Z,67.91
2022-09-21T06:25:10.550Z,68.79
2022-09-21T06:26:10.480Z,67.15
2022-09-21T06:27:10.457Z,67.16
2022-09-21T06:28:10.488Z,67.44
2022-09-21T06:29:10.423Z,66.38
2022-09-21T06:30:10.434Z,66.68
2022-09-21T06:31:10.521Z,64.95
2022-09-21T06:32:10.377Z,66.12
2022-09-21T06:33:10.352Z,66.38
2022-09-21T06:34:10.338Z,65.43
2022-09-21T06:35:10.351Z,66.55
2022-09-21T06:36:10.303Z,64.52
2022-09-21T06:37:10.307Z,66.52
2022-09-21T06:38:10.274Z,66.15
2022-09-21T06:39:10.269Z,64.23
2022-09-21T06:40:10.334Z,66.64
2022-09-21T06:41:10.238Z,66.26
2022-09-21T06:42:10.218Z,65.37
2022-09-21T06:43:11.234Z,65.49
2022-09-21T06:44:10.183Z,65.98
2022-09-21T06:45:10.214Z,66.77
2022-09-21T06:46:10.194Z,65.58
2022-09-21T06:47:10.144Z,65.89
2022-09-21T06:48:10.130Z,65.79
2022-09-21T06:49:10.102Z,66.44
2022-09-21T06:50:10.134Z,65.42
2022-09-21T06:51:10.075Z,64.87
2022-09-21T06:52:10.060Z,63.15
2022-09-21T06:53:10.057Z,65.18
2022-09-21T06:54:10.026Z,66.42
2022-09-21T06:55:10.043Z,63.91
2022-09-21T06:56:10.004Z,65.30
2022-09-21T06:57:09.995Z,66.83
2022-09-21T06:58:10.807Z,66.29
2022-09-21T06:59:09.956Z,64.39
2022-09-21T07:00:09.986Z,62.78
2022-09-21T07:01:10.090Z,65.41
2022-09-21T07:02:10.017Z,66.14
2022-09-21T07:03:09.890Z,66.30
2022-09-21T07:04:09.876Z,65.79
2022-09-21T07:05:09.901Z,65.13
2022-09-21T07:06:09.861Z,64.52
2022-09-21T07:07:10.847Z,64.54
2022-09-21T07:10:05.095Z,66.27
2022-09-21T07:10:15.859Z,66.11
2022-09-21T07:11:11.805Z,66.64
2022-09-21T07:12:09.758Z,65.79
2022-09-21T07:13:09.745Z,66.15
2022-09-21T07:14:09.741Z,65.54
2022-09-21T07:15:09.751Z,65.46
2022-09-21T07:16:09.719Z,65.27
2022-09-21T07:17:15.203Z,65.75
2022-09-21T07:18:10.646Z,65.93
2022-09-21T07:19:11.797Z,66.15
2022-09-21T07:20:10.664Z,66.67
2022-09-21T07:21:09.612Z,65.11
2022-09-21T07:22:09.603Z,65.92
2022-09-21T07:23:09.569Z,64.35
2022-09-21T07:24:12.243Z,63.69
2022-09-21T07:25:10.589Z,64.22
2022-09-21T07:26:09.532Z,63.17
2022-09-21T07:27:09.533Z,64.58
2022-09-21T07:28:09.496Z,63.83
2022-09-21T07:29:09.500Z,64.72
2022-09-21T07:30:09.505Z,63.74
2022-09-21T07:31:09.456Z,63.71
2022-09-21T07:32:09.485Z,62.11
2022-09-21T07:33:09.434Z,64.60
2022-09-21T07:34:09.421Z,64.38
2022-09-21T07:35:09.434Z,63.92
2022-09-21T07:36:09.385Z,62.94
2022-09-21T07:37:09.377Z,65.77
2022-09-21T07:38:09.369Z,65.24
2022-09-21T07:39:09.354Z,63.08
2022-09-21T07:40:09.409Z,62.57
2022-09-21T07:41:09.312Z,64.66
2022-09-21T07:42:09.287Z,65.02
2022-09-21T07:43:09.277Z,64.71
2022-09-21T07:44:09.271Z,65.35
2022-09-21T07:45:09.285Z,63.66
2022-09-21T07:46:09.317Z,63.50
2022-09-21T07:47:09.232Z,63.67
2022-09-21T07:48:09.208Z,63.14
2022-09-21T07:49:09.222Z,62.99
2022-09-21T07:50:09.219Z,63.75
2022-09-21T07:51:09.172Z,64.86
2022-09-21T07:52:11.030Z,66.13
2022-09-21T07:53:10.134Z,65.02
2022-09-21T07:54:09.113Z,64.44
2022-09-21T07:55:09.152Z,64.38
2022-09-21T07:56:09.091Z,63.72
2022-09-21T07:57:09.074Z,63.31
2022-09-21T07:58:09.064Z,64.32
2022-09-21T07:59:09.049Z,63.60
2022-09-21T08:00:09.068Z,62.68
2022-09-21T08:01:09.076Z,63.68
2022-09-21T08:02:09.048Z,63.96
2022-09-21T08:03:09.019Z,65.77
2022-09-21T08:04:09.136Z,65.36
2022-09-21T08:05:10.026Z,65.22
2022-09-21T08:06:08.943Z,62.91
2022-09-21T08:07:08.932Z,64.15
2022-09-21T08:08:08.918Z,64.93
2022-09-21T08:09:08.943Z,63.89
2022-09-21T08:10:08.929Z,64.72
2022-09-21T08:11:08.885Z,63.50
2022-09-21T08:12:08.862Z,63.51
2022-09-21T08:13:08.843Z,64.38
2022-09-21T08:14:08.828Z,62.42
2022-09-21T08:15:20.408Z,64.23
2022-09-21T08:16:10.860Z,65.26
2022-09-21T08:17:08.796Z,64.28
2022-09-21T08:18:08.770Z,62.74
2022-09-21T08:19:08.800Z,65.79
2022-09-21T08:20:08.768Z,63.99
2022-09-21T08:21:08.735Z,62.83
2022-09-21T08:22:08.731Z,63.30
2022-09-21T08:23:08.702Z,64.34
2022-09-21T08:24:08.693Z,64.73
2022-09-21T08:25:08.708Z,63.52
2022-09-21T08:26:08.654Z,64.16
2022-09-21T08:27:08.651Z,64.54
2022-09-21T08:28:10.058Z,62.92
2022-09-21T08:29:09.612Z,63.06
2022-09-21T08:30:08.601Z,63.91
2022-09-21T08:31:08.696Z,64.65
2022-09-21T08:32:08.638Z,65.00
2022-09-21T08:33:08.563Z,65.01
2022-09-21T08:34:08.597Z,64.38
2022-09-21T08:35:08.541Z,63.04
2022-09-21T08:36:08.554Z,64.97
2022-09-21T08:37:08.515Z,63.53
2022-09-21T08:38:08.499Z,64.00
2022-09-21T08:39:08.490Z,63.80
2022-09-21T08:40:08.595Z,64.32
2022-09-21T08:41:08.521Z,63.22
2022-09-21T08:42:08.432Z,63.04
2022-09-21T08:43:08.419Z,63.73
2022-09-21T08:44:08.460Z,61.89
2022-09-21T08:45:08.394Z,64.61
2022-09-21T08:46:08.412Z,65.06
2022-09-21T08:47:08.356Z,62.84
2022-09-21T08:48:08.358Z,64.56
2022-09-21T08:49:08.351Z,60.96
2022-09-21T08:50:08.364Z,63.90
2022-09-21T08:51:08.333Z,65.96
2022-09-21T08:52:08.296Z,64.28
2022-09-21T08:53:08.278Z,64.14
2022-09-21T08:54:08.275Z,62.48
2022-09-21T08:55:08.252Z,63.06
2022-09-21T08:56:08.290Z,62.57
2022-09-21T08:57:08.233Z,63.44
2022-09-21T08:58:08.213Z,61.56
2022-09-21T08:59:08.233Z,63.26
2022-09-21T09:00:08.176Z,62.34
2022-09-21T09:01:08.236Z,61.37
2022-09-21T09:02:08.298Z,63.45
2022-09-21T09:03:08.137Z,61.64
2022-09-21T09:04:08.204Z,63.98
2022-09-21T09:05:08.109Z,64.03
2022-09-21T09:06:08.127Z,63.55
2022-09-21T09:07:08.081Z,63.91
2022-09-21T09:08:08.073Z,64.22
2022-09-21T09:09:08.145Z,64.97
2022-09-21T09:10:08.064Z,63.30
2022-09-21T09:11:08.045Z,63.63
2022-09-21T09:12:10.991Z,64.26
2022-09-21T09:13:08.993Z,61.87
2022-09-21T09:14:07.972Z,63.48
2022-09-21T09:15:07.970Z,62.67
2022-09-21T09:16:08.008Z,64.28
2022-09-21T09:17:07.934Z,63.82
2022-09-21T09:18:07.934Z,63.37
2022-09-21T09:19:07.906Z,63.19
2022-09-21T09:20:07.896Z,62.47
2022-09-21T09:21:07.910Z,64.66
2022-09-21T09:22:07.866Z,62.93
2022-09-21T09:23:07.853Z,62.58
2022-09-21T09:24:07.890Z,62.09
2022-09-21T09:25:07.834Z,64.09
2022-09-21T09:26:07.838Z,63.15
2022-09-21T09:27:07.855Z,61.32
2022-09-21T09:28:07.775Z,63.09
2022-09-21T09:29:07.759Z,62.15
2022-09-21T09:30:07.770Z,63.26
2022-09-21T09:31:07.820Z,64.31
2022-09-21T09:32:07.788Z,61.52
2022-09-21T09:33:07.711Z,64.76
2022-09-21T09:34:07.702Z,63.10
2022-09-21T09:35:07.691Z,64.57
2022-09-21T09:36:07.698Z,63.50
2022-09-21T09:37:08.652Z,63.84
2022-09-21T09:38:07.672Z,62.29
2022-09-21T09:39:07.669Z,62.98
2022-09-21T09:40:07.668Z,64.84
2022-09-21T09:41:07.635Z,63.69
2022-09-21T09:42:07.588Z,61.75
2022-09-21T09:43:07.576Z,64.94
2022-09-21T09:44:07.595Z,63.56
2022-09-21T09:45:07.554Z,65.68
2022-09-21T09:46:11.205Z,62.94
2022-09-21T09:47:08.601Z,63.80
2022-09-21T09:48:07.541Z,63.47
2022-09-21T09:49:07.508Z,64.87
2022-09-21T09:50:07.509Z,64.41
2022-09-21T09:51:07.501Z,63.78
2022-09-21T09:52:07.469Z,65.03
2022-09-21T09:53:07.436Z,64.61
2022-09-21T09:54:10.226Z,64.17
2022-09-21T09:55:08.411Z,63.43
2022-09-21T09:56:07.432Z,65.20
2022-09-21T09:57:08.384Z,66.19
2022-09-21T09:58:07.370Z,65.47
2022-09-21T09:59:07.360Z,63.29
2022-09-21T10:00:07.350Z,62.95
2022-09-21T10:01:07.359Z,64.99
2022-09-21T10:02:07.429Z,65.26
2022-09-21T10:03:07.303Z,64.38
2022-09-21T10:04:07.543Z,61.69
2022-09-21T10:05:07.291Z,63.96
2022-09-21T10:06:07.314Z,64.84
2022-09-21T10:07:07.269Z,63.19
2022-09-21T10:08:07.229Z,64.17
2022-09-21T10:09:07.316Z,62.96
2022-09-21T10:10:07.230Z,62.07
2022-09-21T10:11:07.274Z,63.58
2022-09-21T10:12:10.375Z,64.68
2022-09-21T10:13:08.167Z,65.34
2022-09-21T10:14:07.157Z,62.71
2022-09-21T10:15:07.145Z,63.11
2022-09-21T10:16:07.219Z,65.43
2022-09-21T10:17:07.120Z,64.71
2022-09-21T10:18:07.092Z,63.26
2022-09-21T10:19:07.098Z,63.72
2022-09-21T10:20:07.054Z,62.71
2022-09-21T10:21:07.112Z,65.51
2022-09-21T10:22:07.042Z,65.17
2022-09-21T10:23:07.041Z,65.05
2022-09-21T10:24:07.013Z,64.34
2022-09-21T10:25:06.991Z,64.92
2022-09-21T10:26:07.028Z,63.88
2022-09-21T10:27:07.007Z,62.87
2022-09-21T10:28:06.947Z,64.53
2022-09-21T10:29:07.018Z,65.69
2022-09-21T10:30:06.917Z,64.24
2022-09-21T10:31:06.972Z,64.08
2022-09-21T10:32:10.000Z,64.61
2022-09-21T10:33:07.886Z,64.15
2022-09-21T10:34:06.906Z,65.67
2022-09-21T10:35:06.841Z,64.58
2022-09-21T10:36:06.860Z,65.19
2022-09-21T10:37:06.813Z,65.70
2022-09-21T10:38:06.800Z,65.27
2022-09-21T10:39:06.784Z,63.38
2022-09-21T10:40:06.813Z,66.49
2022-09-21T10:41:06.788Z,64.58
2022-09-21T10:42:06.753Z,65.35
2022-09-21T10:43:06.730Z,65.09
2022-09-21T10:44:06.709Z,64.62
2022-09-21T10:45:06.708Z,66.28
2022-09-21T10:46:06.743Z,64.44
2022-09-21T10:47:06.672Z,65.05
2022-09-21T10:48:06.665Z,65.03
2022-09-21T10:49:06.689Z,63.79
2022-09-21T10:50:06.626Z,64.11
2022-09-21T10:51:06.660Z,65.81
2022-09-21T10:52:06.603Z,65.59
2022-09-21T10:53:06.583Z,66.16
2022-09-21T10:54:06.699Z,66.49
2022-09-21T10:55:06.585Z,64.77
2022-09-21T10:56:18.615Z,67.23
2022-09-21T10:57:08.515Z,65.90
2022-09-21T10:58:06.501Z,64.89
2022-09-21T10:59:06.486Z,65.84
2022-09-21T11:00:06.497Z,67.48
2022-09-21T11:01:06.490Z,66.18
2022-09-21T11:02:06.574Z,66.86
2022-09-21T11:03:06.491Z,68.18
2022-09-21T11:04:06.578Z,68.13
2022-09-21T11:05:06.427Z,67.28
2022-09-21T11:06:06.378Z,66.24
2022-09-21T11:07:06.360Z,66.54
2022-09-21T11:08:06.382Z,67.52
2022-09-21T11:09:06.338Z,66.06
2022-09-21T11:10:06.355Z,66.07
2022-09-21T11:11:06.310Z,68.01
2022-09-21T11:12:06.287Z,67.99
2022-09-21T11:13:06.269Z,67.48
2022-09-21T11:14:06.257Z,68.95
2022-09-21T11:15:06.282Z,67.75
2022-09-21T11:16:06.293Z,66.47
2022-09-21T11:17:06.212Z,66.86
2022-09-21T11:18:06.203Z,67.91
2022-09-21T11:19:06.338Z,67.75
2022-09-21T11:20:06.189Z,68.12
2022-09-21T11:21:06.156Z,69.31
2022-09-21T11:22:06.128Z,67.70
2022-09-21T11:23:06.131Z,67.75
2022-09-21T11:24:06.103Z,65.83
2022-09-21T11:25:06.111Z,68.31
2022-09-21T11:26:06.063Z,68.04
2022-09-21T11:27:06.061Z,67.09
2022-09-21T11:28:06.036Z,69.33
2022-09-21T11:29:06.150Z,69.86
2022-09-21T11:30:06.027Z,68.18
2022-09-21T11:31:06.021Z,68.91
2022-09-21T11:32:06.315Z,68.89
2022-09-21T11:33:05.953Z,69.38
2022-09-21T11:34:06.050Z,68.12
2022-09-21T11:35:05.959Z,67.86
2022-09-21T11:36:05.908Z,67.62
2022-09-21T11:37:05.883Z,68.61
2022-09-21T11:38:05.882Z,69.31
2022-09-21T11:39:05.856Z,69.43
2022-09-21T11:40:05.904Z,68.94
2022-09-21T11:41:05.818Z,68.66
2022-09-21T11:42:05.807Z,68.13
2022-09-21T11:43:05.805Z,68.11
2022-09-21T11:44:07.754Z,67.13
2022-09-21T11:45:05.798Z,68.41
2022-09-21T11:46:05.843Z,67.81
2022-09-21T11:47:05.732Z,65.91
2022-09-21T11:48:05.704Z,68.93
2022-09-21T11:49:05.756Z,69.80
2022-09-21T11:50:29.338Z,69.73
2022-09-21T11:51:07.662Z,69.50
2022-09-21T11:52:05.656Z,69.24
2022-09-21T11:53:05.629Z,67.92
2022-09-21T11:54:05.608Z,69.05
2022-09-21T11:55:05.667Z,67.87
2022-09-21T11:56:05.565Z,67.94
2022-09-21T11:57:05.549Z,67.98
2022-09-21T11:58:05.534Z,67.78
2022-09-21T11:59:05.612Z,69.86
2022-09-21T12:00:05.545Z,68.53
2022-09-21T12:01:05.482Z,69.66
2022-09-21T12:02:05.619Z,69.24
2022-09-21T12:03:05.448Z,69.42
2022-09-21T12:04:05.438Z,67.33
2022-09-21T12:05:05.457Z,68.78
2022-09-21T12:06:05.434Z,69.66
2022-09-21T12:07:05.378Z,68.39
2022-09-21T12:08:05.366Z,67.29
2022-09-21T12:09:05.332Z,66.36
2022-09-21T12:10:08.931Z,68.37
2022-09-21T12:11:05.333Z,68.82
2022-09-21T12:12:05.292Z,68.06
2022-09-21T12:13:05.274Z,67.99
2022-09-21T12:14:05.260Z,68.40
2022-09-21T12:15:05.275Z,68.78
2022-09-21T12:16:05.248Z,69.90
2022-09-21T12:17:05.820Z,68.07
2022-09-21T12:18:05.186Z,68.12
2022-09-21T12:19:05.257Z,65.90
2022-09-21T12:20:05.163Z,68.26
2022-09-21T12:21:05.161Z,67.01
2022-09-21T12:22:05.112Z,68.95
2022-09-21T12:23:05.097Z,68.47
2022-09-21T12:24:05.133Z,66.20
2022-09-21T12:25:05.074Z,68.98
2022-09-21T12:26:05.084Z,67.84
2022-09-21T12:27:05.036Z,69.19
2022-09-21T12:28:05.035Z,66.94
2022-09-21T12:29:05.003Z,67.82
2022-09-21T12:30:04.973Z,68.02
2022-09-21T12:31:05.034Z,68.74
2022-09-21T12:32:04.940Z,66.49
2022-09-21T12:33:04.944Z,68.45
2022-09-21T12:34:05.003Z,68.65
2022-09-21T12:35:05.887Z,66.54
2022-09-21T12:36:04.899Z,69.52
2022-09-21T12:37:04.854Z,66.88
2022-09-21T12:38:04.830Z,67.79
2022-09-21T12:39:04.878Z,68.10
2022-09-21T12:40:04.866Z,68.20
2022-09-21T12:41:04.807Z,68.76
2022-09-21T12:42:04.764Z,69.04
2022-09-21T12:43:04.772Z,67.47
2022-09-21T12:44:04.739Z,67.90
2022-09-21T12:45:04.726Z,69.08
2022-09-21T12:46:04.759Z,67.21
2022-09-21T12:47:04.680Z,67.92
2022-09-21T12:48:05.656Z,68.99
2022-09-21T12:49:04.639Z,67.83
2022-09-21T12:50:04.639Z,68.52
2022-09-21T12:51:06.273Z,67.08
2022-09-21T12:52:05.672Z,68.49
2022-09-21T12:53:04.577Z,68.54